createdAt,value
2018-05-10T00:38:21.174Z,67.45
2018-05-10T00:40:52.263Z,67.91
2018-05-10T00:43:25.071Z,67.77
2018-05-10T00:46:02.635Z,68.34
2018-05-10T00:48:31.288Z,68.97
2018-05-10T00:51:00.636Z,70.26
2018-05-10T01:18:47.038Z,69.23
2018-05-10T01:27:04.055Z,70.76
2018-05-10T02:12:06.538Z,73.25
2018-05-10T02:34:16.653Z,75.50
2018-05-10T03:21:03.645Z,77.99
2018-05-10T03:57:06.453Z,75.87
2018-05-10T03:59:35.372Z,76.59
2018-05-10T05:03:35.061Z,75.59
2018-05-10T05:11:41.711Z,76.05
2018-05-10T05:14:18.290Z,73.08
2018-05-10T05:16:47.103Z,74.85
2018-05-10T05:22:03.757Z,72.34
2018-05-10T05:24:32.893Z,74.12
2018-05-10T05:27:01.566Z,74.71
2018-05-10T05:29:30.874Z,74.72
2018-05-10T05:32:00.203Z,75.13
2018-05-10T05:34:29.541Z,75.00
2018-05-10T05:36:58.668Z,74.78
2018-05-10T05:39:29.644Z,74.64
2018-05-10T05:42:03.948Z,74.49
2018-05-10T05:44:32.651Z,74.22
2018-05-10T05:47:02.768Z,74.24
2018-05-10T05:49:31.539Z,70.88
2018-05-10T05:52:00.623Z,69.46
2018-05-10T05:54:29.392Z,70.97
2018-05-10T05:56:58.669Z,71.89
2018-05-10T05:59:30.090Z,71.63
2018-05-10T06:02:00.768Z,71.67
2018-05-10T06:04:29.563Z,70.89
2018-05-10T06:06:59.232Z,70.64
2018-05-10T06:09:27.909Z,70.15
2018-05-10T06:11:59.576Z,67.08
2018-05-10T06:14:28.431Z,68.91
2018-05-10T06:16:57.299Z,66.04
2018-05-10T06:19:25.937Z,67.10
2018-05-10T06:21:55.742Z,67.54
2018-05-10T06:24:24.846Z,67.54
2018-05-10T06:26:54.026Z,64.67
2018-05-10T06:51:34.736Z,63.35
2018-05-10T06:59:47.736Z,60.19
2018-05-10T07:02:24.575Z,60.18
2018-05-10T07:33:04.494Z,59.03
2018-05-10T07:38:28.724Z,58.59
2018-05-10T07:43:45.358Z,57.37
2018-05-10T07:49:17.466Z,50.95
2018-05-10T07:54:45.315Z,53.82
2018-05-10T08:02:49.134Z,47.91
2018-05-10T08:05:17.820Z,50.64
2018-05-10T08:07:48.616Z,51.36
2018-05-10T08:15:55.880Z,52.07
2018-05-10T08:21:12.179Z,51.98
2018-05-10T08:26:38.470Z,51.50
2018-05-10T08:32:17.314Z,50.95
2018-05-10T08:34:50.449Z,50.33
2018-05-10T08:45:45.518Z,47.81
2018-05-10T08:48:17.979Z,47.44
2018-05-10T09:19:03.159Z,48.71
2018-05-10T09:27:06.237Z,41.19
2018-05-10T09:32:23.839Z,37.85
2018-05-10T09:57:20.299Z,42.47
2018-05-10T09:59:50.422Z,42.66
2018-05-10T10:02:19.533Z,41.90
2018-05-10T10:04:48.713Z,42.80
2018-05-10T10:07:20.083Z,41.90
2018-05-10T10:09:48.720Z,42.00
2018-05-10T10:12:19.332Z,41.96
2018-05-10T10:14:48.273Z,37.35
2018-05-10T10:17:16.876Z,41.21
2018-05-10T10:19:46.757Z,42.03
2018-05-10T10:30:48.132Z,37.55
2018-05-10T10:33:26.040Z,41.14
2018-05-10T10:38:50.371Z,40.95
2018-05-10T10:41:19.819Z,41.44
2018-05-10T10:46:38.209Z,39.82
2018-05-10T10:51:57.236Z,40.16
2018-05-10T10:54:26.794Z,39.75
2018-05-10T10:59:51.305Z,38.89
2018-05-10T11:02:35.168Z,35.15
2018-05-10T11:05:04.355Z,38.21
2018-05-10T11:10:20.719Z,39.42
2018-05-10T11:12:50.475Z,39.18
2018-05-10T11:15:21.523Z,35.99
2018-05-10T11:17:51.751Z,38.47
2018-05-10T11:20:30.883Z,39.24
2018-05-10T11:23:02.243Z,39.64
2018-05-10T11:25:30.886Z,38.97
2018-05-10T11:27:59.525Z,39.66
2018-05-10T11:30:31.651Z,39.60
2018-05-10T11:33:00.969Z,39.76
2018-05-10T11:35:35.462Z,39.69
2018-05-10T11:38:04.062Z,40.22
2018-05-10T11:40:32.736Z,39.99
2018-05-10T11:43:04.514Z,40.01
2018-05-10T11:45:33.484Z,40.25
2018-05-10T11:48:03.739Z,39.76
2018-05-10T11:50:35.104Z,40.34
2018-05-10T11:53:05.550Z,40.20
2018-05-10T11:55:34.450Z,39.72
2018-05-10T11:58:04.291Z,40.38
2018-05-10T12:00:46.406Z,40.15
2018-05-10T12:03:15.071Z,40.13
2018-05-10T12:05:43.735Z,39.07
2018-05-10T12:08:16.257Z,39.54
2018-05-10T12:10:48.016Z,38.65
2018-05-10T12:13:24.377Z,39.80
2018-05-10T12:15:54.229Z,38.85
2018-05-10T12:18:22.901Z,36.00
2018-05-10T12:20:51.718Z,38.50
2018-05-10T12:23:20.395Z,38.82
2018-05-10T12:25:49.021Z,38.33
2018-05-10T12:28:17.743Z,38.46
2018-05-10T12:30:46.363Z,38.41
2018-05-10T12:33:15.087Z,37.56
2018-05-10T12:35:43.793Z,37.08
2018-05-10T12:38:12.695Z,37.82
2018-05-10T12:40:42.396Z,37.26
2018-05-10T12:43:15.452Z,36.87
2018-05-10T12:45:44.050Z,36.71
2018-05-10T12:48:14.705Z,36.77
2018-05-10T12:50:50.121Z,36.69
2018-05-10T12:53:18.959Z,31.95
2018-05-10T12:56:02.419Z,34.46
2018-05-10T12:58:30.954Z,35.14
2018-05-10T13:00:59.594Z,35.01
2018-05-10T13:03:29.254Z,31.90
2018-05-10T13:05:57.977Z,35.02
2018-05-10T13:08:26.661Z,35.36
2018-05-10T13:10:56.842Z,35.39
2018-05-10T13:13:29.436Z,33.99
2018-05-10T13:16:09.204Z,34.67
2018-05-10T13:18:39.111Z,34.28
2018-05-10T13:21:08.210Z,34.18
2018-05-10T13:26:27.001Z,34.25
2018-05-10T13:28:57.899Z,34.49
2018-05-10T13:31:37.586Z,36.10
2018-05-10T13:34:16.213Z,30.79
2018-05-10T13:36:47.502Z,32.63
2018-05-10T13:39:20.419Z,30.14
2018-05-10T13:41:56.220Z,31.99
2018-05-10T13:44:27.381Z,32.15
2018-05-10T13:47:04.100Z,33.54
2018-05-10T13:49:35.551Z,30.12
2018-05-10T13:52:08.546Z,30.07
2018-05-10T13:54:43.022Z,31.59
2018-05-10T14:00:09.231Z,34.82
2018-05-10T14:08:29.946Z,34.38
2018-05-10T14:11:05.313Z,33.07
2018-05-10T14:13:42.416Z,32.66
2018-05-10T14:16:14.372Z,35.58
2018-05-10T14:18:58.937Z,36.79
2018-05-10T14:21:30.840Z,37.27
2018-05-10T14:24:02.238Z,36.50
2018-05-10T14:32:31.597Z,37.69
2018-05-10T14:37:58.813Z,40.47
2018-05-10T14:40:39.984Z,44.83
2018-05-10T14:43:13.219Z,40.81
2018-05-10T14:45:42.636Z,43.68
2018-05-10T14:48:12.554Z,44.18
2018-05-10T14:50:41.807Z,43.43
2018-05-10T14:53:10.982Z,43.38
2018-05-10T14:55:42.420Z,43.24
2018-05-10T14:58:11.365Z,42.11
2018-05-10T15:00:41.284Z,41.19
2018-05-10T15:03:10.274Z,43.80
2018-05-10T15:05:42.961Z,41.10
2018-05-10T15:08:11.497Z,43.33
2018-05-10T15:10:40.433Z,42.78
2018-05-10T15:13:09.509Z,42.66
2018-05-10T15:15:41.194Z,42.77
2018-05-10T15:18:09.780Z,43.68
2018-05-10T15:20:39.011Z,43.04
2018-05-10T15:23:08.096Z,43.15
2018-05-10T15:25:37.344Z,44.30
2018-05-10T15:28:06.426Z,43.09
2018-05-10T15:30:37.711Z,43.10
2018-05-10T15:33:08.250Z,40.10
2018-05-10T15:35:41.602Z,42.37
2018-05-10T15:38:10.540Z,40.64
2018-05-10T15:40:40.389Z,43.24
2018-05-10T15:43:17.060Z,43.52
2018-05-10T15:45:42.835Z,41.31
2018-05-10T15:48:11.635Z,44.78
2018-05-10T15:50:44.076Z,42.61
2018-05-10T15:53:12.693Z,43.15
2018-05-10T15:55:41.681Z,36.41
2018-05-10T15:58:10.993Z,37.42
2018-05-10T16:00:39.622Z,37.64
2018-05-10T16:03:08.293Z,38.55
2018-05-10T16:05:41.398Z,39.41
2018-05-10T16:11:00.714Z,42.41
2018-05-10T16:13:33.398Z,43.68
2018-05-10T16:16:10.685Z,44.93
2018-05-10T16:18:47.716Z,45.63
2018-05-10T16:21:16.456Z,46.51
2018-05-10T16:23:51.598Z,47.47
2018-05-10T16:26:22.808Z,47.90
2018-05-10T16:31:46.045Z,48.07
2018-05-10T16:34:16.655Z,44.11
2018-05-10T16:36:45.680Z,47.81
2018-05-10T16:39:22.089Z,48.87
2018-05-10T16:41:59.840Z,49.35
2018-05-10T16:44:31.957Z,49.80
2018-05-10T16:50:00.073Z,49.75
2018-05-10T16:52:31.950Z,50.29
2018-05-10T16:55:14.369Z,51.15
2018-05-10T16:57:54.328Z,51.49
2018-05-10T17:00:28.828Z,51.93
2018-05-10T17:03:01.913Z,52.46
2018-05-10T17:05:33.339Z,49.37
2018-05-10T17:08:02.269Z,52.81
2018-05-10T17:10:34.672Z,53.41
2018-05-10T17:13:10.175Z,53.76
2018-05-10T17:16:00.761Z,54.16
2018-05-10T17:18:38.332Z,54.52
2018-05-10T17:21:15.543Z,54.74
2018-05-10T17:23:44.507Z,54.92
2018-05-10T17:26:13.133Z,55.31
2018-05-10T17:28:41.737Z,55.48
2018-05-10T17:31:12.020Z,55.59
2018-05-10T17:33:42.814Z,53.26
2018-05-10T17:36:11.454Z,55.99
2018-05-10T17:38:40.147Z,54.26
2018-05-10T17:41:09.899Z,57.15
2018-05-10T17:43:38.741Z,57.94
2018-05-10T17:46:07.388Z,58.88
2018-05-10T17:48:38.611Z,58.98
2018-05-10T17:51:08.317Z,59.58
2018-05-10T17:56:26.211Z,57.72
2018-05-10T17:58:54.941Z,60.85
2018-05-10T18:01:24.168Z,61.48
2018-05-10T18:03:54.018Z,62.01
2018-05-10T18:06:22.974Z,61.84
2018-05-10T18:08:51.621Z,62.74
2018-05-10T18:11:20.499Z,62.61
2018-05-10T18:13:49.415Z,62.23
2018-05-10T18:16:18.029Z,61.95
2018-05-10T18:18:47.196Z,62.17
2018-05-10T18:21:15.915Z,62.45
2018-05-10T18:23:45.408Z,62.68
2018-05-10T18:26:14.121Z,62.25
2018-05-10T18:28:43.090Z,62.49
2018-05-10T18:31:11.793Z,59.74
2018-05-10T18:33:43.831Z,62.44
2018-05-10T18:36:12.563Z,63.26
2018-05-10T18:38:41.260Z,63.87
2018-05-10T18:41:09.944Z,63.90
2018-05-10T18:43:45.244Z,64.22
2018-05-10T18:46:11.785Z,64.92
2018-05-10T18:48:42.826Z,65.31
2018-05-10T18:51:11.493Z,65.26
2018-05-10T18:53:40.128Z,65.22
2018-05-10T18:56:12.257Z,65.74
2018-05-10T18:58:43.745Z,66.12
2018-05-10T19:01:12.681Z,66.50
2018-05-10T19:03:41.701Z,66.60
2018-05-10T19:06:13.442Z,64.40
2018-05-10T19:08:44.131Z,64.10
2018-05-10T19:11:19.252Z,63.83
2018-05-10T19:16:44.793Z,67.19
2018-05-10T19:19:16.656Z,67.72
2018-05-10T19:21:45.704Z,65.55
2018-05-10T19:24:15.868Z,67.55
2018-05-10T19:26:46.864Z,68.38
2018-05-10T19:29:15.716Z,68.74
2018-05-10T19:31:47.454Z,69.08
2018-05-10T19:34:22.687Z,69.52
2018-05-10T19:36:51.558Z,70.16
2018-05-10T19:39:24.749Z,70.28
2018-05-10T19:41:55.192Z,70.57
2018-05-10T19:44:25.129Z,70.39
2018-05-10T19:46:58.604Z,70.49
2018-05-10T19:49:27.605Z,70.93
2018-05-10T19:51:57.724Z,71.38
2018-05-10T19:54:26.478Z,71.41
2018-05-10T19:56:55.358Z,71.69
2018-05-10T19:59:23.974Z,69.14
2018-05-10T20:01:52.582Z,70.85
2018-05-10T20:04:22.525Z,71.42
2018-05-10T20:06:51.206Z,71.74
2018-05-10T20:09:19.901Z,71.39
2018-05-10T20:11:48.582Z,71.33
2018-05-10T20:14:17.263Z,71.49
2018-05-10T20:16:49.569Z,69.16
2018-05-10T20:19:18.194Z,70.57
2018-05-10T20:21:46.812Z,68.29
2018-05-10T20:24:15.458Z,67.50
2018-05-10T20:26:44.090Z,69.48
2018-05-10T20:29:12.993Z,70.02
2018-05-10T20:31:42.312Z,67.73
2018-05-10T20:34:10.999Z,66.93
2018-05-10T20:36:39.645Z,69.18
2018-05-10T20:39:08.477Z,70.02
2018-05-10T20:41:37.401Z,69.99
2018-05-10T20:44:05.976Z,70.24
2018-05-10T20:46:38.997Z,70.33
2018-05-10T20:49:08.936Z,70.24
2018-05-10T20:51:38.023Z,70.43
2018-05-10T20:54:09.397Z,70.40
2018-05-10T20:56:38.052Z,67.99
2018-05-10T20:59:06.688Z,69.58
2018-05-10T21:01:37.697Z,69.98
2018-05-10T21:04:09.483Z,70.12
2018-05-10T21:06:39.304Z,70.07
2018-05-10T21:09:08.284Z,70.17
2018-05-10T21:11:39.777Z,67.34
2018-05-10T21:14:09.929Z,65.95
2018-05-10T21:19:28.952Z,68.27
2018-05-10T21:21:58.915Z,68.13
2018-05-10T21:24:28.088Z,68.27
2018-05-10T21:26:59.390Z,68.11
2018-05-10T21:29:30.211Z,68.14
2018-05-10T21:31:59.369Z,68.14
2018-05-10T21:34:33.609Z,68.47
2018-05-10T21:37:03.040Z,68.59
2018-05-10T21:39:32.371Z,68.87
2018-05-10T21:42:01.873Z,66.46
2018-05-10T21:44:31.308Z,68.40
2018-05-10T21:47:09.296Z,66.40
2018-05-10T21:50:02.763Z,68.39
2018-05-10T21:52:32.307Z,69.14
2018-05-10T21:55:01.942Z,69.50
2018-05-10T21:57:43.995Z,69.71
2018-05-10T22:00:26.601Z,66.37
2018-05-10T22:02:59.794Z,68.09
2018-05-10T22:05:30.921Z,68.54
2018-05-10T22:08:01.850Z,65.91
2018-05-10T22:10:33.367Z,67.71
2018-05-10T22:13:06.569Z,68.28
2018-05-10T22:15:38.191Z,68.60
2018-05-10T22:18:16.080Z,68.87
2018-05-10T22:20:44.997Z,66.24
2018-05-10T22:23:15.770Z,68.22
2018-05-10T22:25:48.695Z,68.76
2018-05-10T22:28:20.168Z,69.20
2018-05-10T22:30:49.732Z,69.66
2018-05-10T22:33:21.351Z,69.77
2018-05-10T22:35:50.738Z,70.28
2018-05-10T22:41:08.936Z,70.51
2018-05-10T22:43:39.978Z,67.35
2018-05-10T22:46:11.716Z,69.04
2018-05-10T22:48:43.778Z,69.12
2018-05-10T22:51:18.513Z,68.84
2018-05-10T22:53:47.956Z,68.79
2018-05-10T22:56:17.164Z,69.02
2018-05-10T22:58:48.151Z,68.86
2018-05-10T23:01:21.491Z,68.65
2018-05-10T23:03:53.363Z,68.54
2018-05-10T23:06:40.836Z,68.54
2018-05-10T23:09:15.178Z,68.65
2018-05-10T23:11:50.963Z,68.47
2018-05-10T23:14:20.910Z,68.31
2018-05-10T23:16:49.905Z,65.47
2018-05-10T23:19:18.828Z,66.93
2018-05-10T23:21:55.167Z,67.44
2018-05-10T23:24:29.703Z,67.60
2018-05-10T23:27:00.786Z,67.54
2018-05-10T23:29:31.734Z,67.57
2018-05-10T23:32:03.180Z,67.47
2018-05-10T23:34:33.439Z,67.30
2018-05-10T23:37:06.831Z,67.35
2018-05-10T23:39:45.330Z,67.21
2018-05-10T23:42:14.893Z,67.23
2018-05-10T23:44:44.346Z,67.15
2018-05-10T23:47:13.733Z,64.39
2018-05-10T23:49:51.278Z,66.25
2018-05-10T23:52:22.013Z,67.07
2018-05-10T23:54:51.776Z,67.17
2018-05-10T23:57:21.068Z,64.46
2018-05-10T23:59:55.716Z,66.52
